Artesia, Mississippi
Current Conditions -  °F | °C
As of 11:45 AM on Friday 24 Oct 2014 (Local Time) from KGTR Reporting Station
Clear Clear  
Wind Chill: 21°   Ceiling: Unl
Heat Index: 21°   Visibility: 10mi
Dew Point:   Wind: 8mph
Humidity: 43%   Direction: 10°N
Pressure: 30.12"   Gusts: NA
Location:  33.42°N, 88.64°W
Report Text: KGTR 241645Z 01007KT 10SM SKC 21/08 A3012
Loading
Personal Weather Stations






























Interactive Weather Map
Tropical Storm Tracking
New forecast layout! Learn more

10-Day Weather Forecast

Advertisements
Track Severe Weather on mobile